Time;durP1;ratioP1;P1;durP2;ratioP2;P2;SDS_P1;SDS_P2;PMS_P1;PMS_P2;Temp;Humidity;BMP_temperature;BMP_pressure;BME280_temperature;BME280_humidity;BME280_pressure;Samples;Min_cycle;Max_cycle;Signal;HPM_P1;HPM_P2
2020/12/14 06:42:30;;;;;;;18.92;12.00;;;;;;;-0.22;93.93;100498.63;1826171;77;28265;-79
2020/12/14 06:45:06;;;;;;;52.73;30.43;;;;;;;-0.27;93.88;100497.79;1797483;78;21293;-77
2020/12/14 06:47:46;;;;;;;22.77;16.12;;;;;;;-0.27;93.94;100501.63;1795390;78;21403;-78
2020/12/14 06:50:28;;;;;;;29.07;20.00;;;;;;;-0.26;93.95;100497.78;1787469;79;21069;-75
2020/12/14 06:53:00;;;;;;;27.77;16.67;;;;;;;-0.26;93.82;100496.50;1782401;79;21053;-77
2020/12/14 06:55:46;;;;;;;21.20;15.23;;;;;;;-0.25;93.85;100498.20;1785817;79;21033;-75
2020/12/14 06:58:40;;;;;;;22.85;16.37;;;;;;;-0.25;93.79;100496.92;1789662;79;21016;-76
2020/12/14 07:01:37;;;;;;;32.00;23.07;;;;;;;-0.25;93.54;100503.33;1790358;79;21190;-79
2020/12/14 07:04:19;;;;;;;27.98;22.20;;;;;;;-0.28;93.32;100500.78;1799211;78;21052;-80
2020/12/14 07:06:49;;;;;;;22.22;15.32;;;;;;;-0.28;93.35;100503.77;1791121;78;21037;-75
2020/12/14 07:09:37;;;;;;;23.12;15.60;;;;;;;-0.31;93.43;100503.34;1792488;78;21151;-79
2020/12/14 07:12:15;;;;;;;22.93;16.30;;;;;;;-0.28;93.61;100505.05;1782793;79;21073;-76
2020/12/14 07:14:51;;;;;;;28.15;18.85;;;;;;;-0.25;93.68;100505.89;1811277;78;21254;-82
2020/12/14 07:17:26;;;;;;;34.08;20.27;;;;;;;-0.23;93.52;100507.16;1820198;77;21018;-79
2020/12/14 07:19:57;;;;;;;52.60;35.25;;;;;;;-0.23;93.53;100498.20;1776604;79;21706;-82
2020/12/14 07:22:49;;;;;;;86.35;49.42;;;;;;;-0.21;93.58;100507.58;1787301;79;21625;-79
2020/12/14 07:25:22;;;;;;;31.90;18.98;;;;;;;-0.17;93.72;100496.89;1785643;79;21133;-81
2020/12/14 07:27:53;;;;;;;35.75;21.97;;;;;;;-0.14;93.67;100500.30;1791500;78;21290;-82
2020/12/14 07:30:21;;;;;;;79.82;40.85;;;;;;;-0.12;93.56;100497.30;1784805;79;21105;-84
2020/12/14 07:32:50;;;;;;;54.77;27.95;;;;;;;-0.10;93.46;100498.56;1805533;78;21052;-79
2020/12/14 07:35:21;;;;;;;43.75;27.90;;;;;;;-0.09;93.46;100498.99;1802481;78;21057;-85
2020/12/14 07:37:53;;;;;;;21.55;14.60;;;;;;;-0.09;93.40;100498.99;1804172;78;21279;-82
2020/12/14 07:40:21;;;;;;;19.20;12.15;;;;;;;-0.08;93.45;100498.13;1807669;78;21338;-81
2020/12/14 07:42:49;;;;;;;24.25;17.37;;;;;;;-0.07;93.38;100503.67;1791633;78;21060;-80
2020/12/14 07:45:21;;;;;;;20.80;15.50;;;;;;;-0.07;93.42;100504.52;1790039;79;21759;-82
2020/12/14 07:47:52;;;;;;;27.52;18.77;;;;;;;-0.04;93.63;100509.62;1802116;78;20989;-80
2020/12/14 07:50:23;;;;;;;30.88;19.07;;;;;;;-0.01;93.76;100499.80;1823068;77;21040;-80
2020/12/14 07:52:55;;;;;;;35.03;21.62;;;;;;;0.03;93.50;100500.61;1806494;78;22282;-81
2020/12/14 07:55:26;;;;;;;32.53;20.70;;;;;;;0.03;93.32;100500.17;1797753;78;21772;-80
2020/12/14 07:57:55;;;;;;;37.23;22.20;;;;;;;0.04;93.35;100503.16;1805591;78;21598;-83
2020/12/14 08:00:26;;;;;;;45.75;26.65;;;;;;;0.07;93.28;100503.57;1806833;77;21005;-82
2020/12/14 08:03:00;;;;;;;31.82;20.48;;;;;;;0.07;93.09;100502.30;1808534;78;21084;-81
2020/12/14 08:05:28;;;;;;;35.40;20.70;;;;;;;0.07;93.00;100508.27;1825239;77;21629;-83
2020/12/14 08:08:05;;;;;;;38.98;24.87;;;;;;;0.07;92.72;100509.55;1790254;79;22287;-82
2020/12/14 08:10:35;;;;;;;30.37;19.75;;;;;;;0.08;92.64;100507.41;1804886;78;21091;-81
2020/12/14 08:13:10;;;;;;;43.15;25.45;;;;;;;0.08;92.47;100507.83;1825770;77;20978;-81
2020/12/14 08:15:50;;;;;;;;;;;;;;;0.09;92.44;100510.39;1803340;78;21173;-77
2020/12/14 08:18:25;;;;;;;41.10;23.35;;;;;;;0.10;92.31;100509.95;1799673;78;21196;-80
2020/12/14 08:20:53;;;;;;;34.15;20.40;;;;;;;0.10;92.23;100509.53;1807862;78;21640;-80
2020/12/14 08:23:27;;;;;;;22.70;14.05;;;;;;;0.10;92.09;100505.69;1772921;78;21105;-78
2020/12/14 08:25:58;;;;;;;20.90;14.55;;;;;;;0.12;92.11;100506.95;1815972;77;21676;-82
2020/12/14 08:28:29;;;;;;;13.38;11.33;;;;;;;0.13;91.95;100509.52;1783874;79;21072;-81
2020/12/14 08:30:58;;;;;;;16.05;11.57;;;;;;;0.13;91.91;100504.82;1802795;78;22058;-78
2020/12/14 08:33:26;;;;;;;16.07;11.38;;;;;;;0.12;91.74;100499.28;1791910;79;21648;-80
2020/12/14 08:35:57;;;;;;;78.85;40.08;;;;;;;0.15;91.88;100508.22;1801687;78;21518;-78
2020/12/14 08:38:27;;;;;;;59.00;31.23;;;;;;;0.15;91.79;100503.95;1828127;76;21038;-75
2020/12/14 08:40:58;;;;;;;61.73;30.57;;;;;;;0.19;91.85;100505.64;1821229;76;20957;-77
2020/12/14 08:43:27;;;;;;;19.05;13.08;;;;;;;0.23;91.93;100498.78;1790218;78;22705;-78
2020/12/14 08:46:15;;;;;;;31.48;18.20;;;;;;;0.27;92.00;100497.91;1791976;78;21185;-79
2020/12/14 08:48:53;;;;;;;25.25;15.10;;;;;;;0.30;91.68;100497.89;1795581;78;21163;-79
2020/12/14 08:51:23;;;;;;;;;;;;;;;0.33;91.56;100496.59;1788196;79;21048;-78
2020/12/14 08:53:55;;;;;;;14.23;9.10;;;;;;;0.33;91.25;100491.47;1792798;79;20208;-81
2020/12/14 08:56:26;;;;;;;31.80;18.95;;;;;;;0.31;91.10;100494.03;1807042;78;21263;-81
2020/12/14 08:58:58;;;;;;;31.00;18.00;;;;;;;0.30;90.93;100493.62;1793997;78;21063;-78
2020/12/14 09:01:30;;;;;;;23.22;14.80;;;;;;;0.29;91.03;100492.34;1798007;79;21617;-79
2020/12/14 09:04:04;;;;;;;12.15;9.73;;;;;;;0.31;91.26;100488.06;1798469;78;21055;-81
2020/12/14 09:06:44;;;;;;;15.50;12.00;;;;;;;0.36;91.34;100490.16;1803278;78;21012;-78
2020/12/14 09:09:14;;;;;;;28.40;19.00;;;;;;;0.40;91.32;100496.12;1784998;78;22035;-77
2020/12/14 09:11:48;;;;;;;34.13;22.15;;;;;;;0.43;91.02;100493.50;1791909;79;21194;-80
2020/12/14 09:14:31;;;;;;;18.37;11.97;;;;;;;0.44;91.08;100493.49;1797828;79;21309;-79
2020/12/14 09:17:03;;;;;;;16.05;12.10;;;;;;;0.48;91.08;100493.89;1789362;79;21189;-81
2020/12/14 09:19:35;;;;;;;23.35;18.65;;;;;;;0.52;90.98;100486.60;1781950;78;20974;-82
2020/12/14 09:22:05;;;;;;;25.75;19.67;;;;;;;0.57;90.93;100486.56;1813142;78;21143;-81
2020/12/14 09:24:37;;;;;;;23.77;17.27;;;;;;;0.60;90.98;100486.55;1793551;79;21001;-84
2020/12/14 09:27:14;;;;;;;20.97;16.45;;;;;;;0.64;91.03;100490.35;1792930;78;21163;-83
2020/12/14 09:29:45;;;;;;;22.17;17.48;;;;;;;0.68;90.83;100482.64;1766274;79;21687;-84
2020/12/14 09:32:14;;;;;;;21.90;18.42;;;;;;;0.70;90.75;100486.05;1790547;79;21031;-84
2020/12/14 09:34:44;;;;;;;13.55;11.28;;;;;;;0.73;90.71;100484.73;1801391;79;21627;-83
2020/12/14 09:37:14;;;;;;;11.93;10.58;;;;;;;0.76;90.70;100488.13;1785105;79;21051;-80
2020/12/14 09:39:45;;;;;;;13.98;10.80;;;;;;;0.79;90.55;100487.25;1776719;79;21036;-81
2020/12/14 09:42:16;;;;;;;14.30;11.05;;;;;;;0.81;90.48;100486.77;1795312;78;21779;-80
2020/12/14 09:44:46;;;;;;;14.65;10.30;;;;;;;0.85;90.43;100480.75;1811559;78;21055;-85
2020/12/14 09:47:38;;;;;;;11.38;10.05;;;;;;;0.90;90.45;100484.13;1786959;78;21036;-78
2020/12/14 09:50:09;;;;;;;14.83;13.13;;;;;;;0.93;90.24;100483.67;1802405;79;21024;-82
2020/12/14 09:52:43;;;;;;;18.10;13.70;;;;;;;0.96;90.09;100482.79;1794894;79;21170;-78
2020/12/14 09:55:16;;;;;;;20.85;16.15;;;;;;;0.98;90.11;100482.34;1810669;78;21024;-79
2020/12/14 09:57:45;;;;;;;21.77;15.15;;;;;;;1.01;90.00;100475.91;1768311;78;21198;-79
2020/12/14 10:00:17;;;;;;;14.45;11.85;;;;;;;1.03;89.84;100479.30;1804195;77;21643;-78
2020/12/14 10:02:49;;;;;;;9.80;8.83;;;;;;;1.06;89.79;100482.27;1799123;78;21063;-81
2020/12/14 10:05:19;;;;;;;15.68;11.10;;;;;;;1.08;89.63;100474.98;1769294;79;21172;-82
2020/12/14 10:07:49;;;;;;;17.98;12.15;;;;;;;1.10;89.39;100483.52;1793099;78;21020;-80
2020/12/14 10:10:17;;;;;;;27.65;16.62;;;;;;;1.10;89.22;100478.38;1805421;78;21060;-77
2020/12/14 10:12:46;;;;;;;42.83;23.70;;;;;;;1.08;89.14;100480.55;1781492;79;21191;-80
2020/12/14 10:15:17;;;;;;;32.73;18.42;;;;;;;1.07;89.09;100475.00;1777935;79;21011;-85
2020/12/14 10:17:46;;;;;;;23.73;15.53;;;;;;;1.07;89.09;100472.44;1801324;77;21044;-81
2020/12/14 10:20:16;;;;;;;28.05;18.32;;;;;;;1.05;88.86;100464.75;1783893;78;21063;-81
2020/12/14 10:22:46;;;;;;;33.65;20.77;;;;;;;1.06;88.96;100469.02;1809137;77;21919;-82
2020/12/14 10:25:15;;;;;;;14.25;10.85;;;;;;;1.08;89.15;100466.44;1803803;78;22647;-82
2020/12/14 10:27:47;;;;;;;19.67;14.50;;;;;;;1.08;88.57;100461.31;1792378;79;21024;-81
2020/12/14 10:30:15;;;;;;;9.10;8.10;;;;;;;1.08;88.57;100460.03;1743086;80;21068;-83
2020/12/14 10:32:44;;;;;;;8.35;7.25;;;;;;;1.09;88.51;100463.86;1779007;80;21052;-79
2020/12/14 10:35:25;;;;;;;19.17;12.85;;;;;;;1.10;88.37;100465.98;1802500;77;21157;-81
2020/12/14 10:37:57;;;;;;;9.98;8.88;;;;;;;1.12;88.24;100466.39;1804520;78;21402;-81
2020/12/14 10:40:26;;;;;;;12.00;9.03;;;;;;;1.11;87.90;100465.97;1799883;78;21047;-79
2020/12/14 10:42:55;;;;;;;12.65;9.43;;;;;;;1.08;87.77;100461.31;1800857;78;21100;-79
2020/12/14 10:45:24;;;;;;;13.62;10.40;;;;;;;1.05;87.89;100462.19;1797635;78;21186;-78
2020/12/14 10:47:53;;;;;;;9.60;8.35;;;;;;;1.06;88.13;100459.19;1792372;78;21052;-81
2020/12/14 10:50:24;;;;;;;10.40;8.43;;;;;;;1.05;88.15;100460.91;1800208;78;21237;-81
2020/12/14 10:52:53;;;;;;;9.33;8.35;;;;;;;1.05;88.09;100457.49;1797382;78;21714;-77
2020/12/14 10:55:22;;;;;;;8.48;7.65;;;;;;;1.01;87.93;100457.95;1810027;78;21171;-80
2020/12/14 11:01:00;;;;;;;11.55;7.40;;;;;;;0.98;88.30;100472.94;1808133;77;21359;-67
2020/12/14 11:03:39;;;;;;;10.98;8.70;;;;;;;1.00;88.38;100469.92;1811722;77;21390;-67
2020/12/14 11:06:07;;;;;;;22.52;13.53;;;;;;;1.02;88.31;100468.63;1839591;77;20974;-68
2020/12/14 11:08:36;;;;;;;54.63;27.30;;;;;;;1.05;88.42;100466.03;1831950;77;21063;-69
2020/12/14 11:11:04;;;;;;;56.08;27.58;;;;;;;1.07;88.19;100466.87;1819976;77;20954;-69
2020/12/14 11:13:33;;;;;;;23.83;14.43;;;;;;;1.08;87.98;100472.41;1816753;78;21468;-68
2020/12/14 11:17:19;;;;;;;7.45;6.70;;;;;;;1.09;88.04;100470.27;1842254;77;22691;-68
2020/12/14 11:19:48;;;;;;;10.20;8.83;;;;;;;1.06;88.23;100461.76;1811480;78;21615;-68
2020/12/14 11:22:17;;;;;;;10.13;8.80;;;;;;;1.09;88.08;100468.14;1811598;79;22020;-69
2020/12/14 11:24:45;;;;;;;8.05;7.05;;;;;;;1.08;88.06;100467.29;1812088;78;21462;-68
2020/12/14 11:27:15;;;;;;;7.37;6.67;;;;;;;1.09;87.99;100471.55;1824843;78;20890;-67
2020/12/14 11:29:44;;;;;;;8.60;7.47;;;;;;;1.10;88.05;100471.97;1825123;78;20992;-68
2020/12/14 11:32:13;;;;;;;20.37;16.07;;;;;;;1.10;87.91;100483.52;1825192;78;21570;-67
2020/12/14 11:34:41;;;;;;;7.97;7.03;;;;;;;1.09;87.73;100489.50;1825555;78;21238;-68
2020/12/14 11:37:09;;;;;;;7.03;6.33;;;;;;;1.07;87.81;100489.95;1812291;78;21481;-68
2020/12/14 11:39:37;;;;;;;8.58;7.67;;;;;;;1.08;87.71;100500.63;1808051;78;21467;-70
2020/12/14 11:42:08;;;;;;;21.35;16.87;;;;;;;1.08;88.12;100492.94;1810048;78;21698;-68
2020/12/14 11:44:36;;;;;;;22.48;17.52;;;;;;;1.10;87.87;100489.07;1794240;78;21471;-67
2020/12/14 11:47:04;;;;;;;11.60;9.73;;;;;;;1.10;87.61;100485.22;1802860;78;21365;-68
2020/12/14 11:49:33;;;;;;;12.35;9.28;;;;;;;1.07;87.37;100489.09;1799233;79;20958;-68
2020/12/14 11:52:01;;;;;;;9.13;8.23;;;;;;;1.02;87.56;100484.02;1798234;79;21689;-68
2020/12/14 11:54:30;;;;;;;9.38;8.03;;;;;;;1.00;87.61;100494.72;1799184;79;21558;-70
2020/12/14 11:56:58;;;;;;;14.83;9.18;;;;;;;0.97;87.46;100487.05;1795516;79;21115;-68
2020/12/14 11:59:26;;;;;;;10.90;9.20;;;;;;;0.94;87.46;100497.34;1801922;79;22123;-67
2020/12/14 12:01:55;;;;;;;14.85;9.98;;;;;;;0.92;87.60;100499.06;1794070;79;21008;-68
2020/12/14 12:04:24;;;;;;;16.40;10.55;;;;;;;0.90;87.77;100500.36;1719878;82;20945;-67
2020/12/14 12:06:52;;;;;;;13.85;9.58;;;;;;;0.88;87.66;100501.23;1741720;81;21014;-67
2020/12/14 12:09:22;;;;;;;10.88;8.18;;;;;;;0.87;87.87;100505.95;1735421;81;21495;-67
2020/12/14 12:11:51;;;;;;;10.23;7.62;;;;;;;0.87;88.08;100500.39;1727860;81;22139;-68
2020/12/14 12:14:23;;;;;;;13.03;9.83;;;;;;;0.88;87.99;100508.49;1728189;81;20940;-69
2020/12/14 12:16:52;;;;;;;12.68;11.00;;;;;;;0.87;87.94;100505.95;1713817;82;21150;-68
2020/12/14 12:19:21;;;;;;;13.75;10.85;;;;;;;0.86;88.04;100499.12;1751585;81;21055;-70
2020/12/14 12:21:50;;;;;;;12.00;10.78;;;;;;;0.85;88.11;100503.83;1727834;81;21094;-68
2020/12/14 12:24:21;;;;;;;14.35;11.30;;;;;;;0.85;88.17;100498.70;1722026;82;21204;-74
2020/12/14 12:26:50;;;;;;;12.68;11.30;;;;;;;0.84;88.34;100502.13;1736288;80;21077;-70
2020/12/14 12:29:18;;;;;;;14.75;11.50;;;;;;;0.84;88.51;100503.41;1723892;82;21626;-70
2020/12/14 12:31:51;;;;;;;11.68;10.48;;;;;;;0.85;88.56;100501.27;1712863;83;21088;-78
2020/12/14 12:34:21;;;;;;;12.82;10.88;;;;;;;0.87;88.40;100502.10;1739356;81;21053;-76
2020/12/14 12:36:55;;;;;;;17.40;15.32;;;;;;;0.86;88.32;100502.96;1753667;81;21360;-72
2020/12/14 12:39:23;;;;;;;18.98;16.20;;;;;;;0.87;88.40;100502.10;1724146;82;21078;-70
2020/12/14 12:41:53;;;;;;;23.70;19.85;;;;;;;0.88;88.35;100512.77;1728063;82;21182;-72
2020/12/14 12:44:21;;;;;;;26.37;20.35;;;;;;;0.86;88.44;100506.81;1728513;82;21578;-74
2020/12/14 12:46:50;;;;;;;22.42;17.48;;;;;;;0.86;88.44;100506.81;1740660;81;21659;-70
2020/12/14 12:49:19;;;;;;;29.10;22.95;;;;;;;0.84;88.43;100508.53;1729136;82;21432;-75
2020/12/14 12:51:48;;;;;;;20.35;17.32;;;;;;;0.83;88.66;100510.25;1728490;82;21647;-69
2020/12/14 12:54:16;;;;;;;14.70;11.88;;;;;;;0.84;88.79;100505.97;1718645;83;21072;-68
2020/12/14 12:56:45;;;;;;;12.00;9.43;;;;;;;0.86;88.83;100512.78;1716221;83;21035;-69
2020/12/14 12:59:13;;;;;;;9.88;8.85;;;;;;;0.89;89.01;100510.20;1726375;82;21093;-68
2020/12/14 13:01:42;;;;;;;8.98;8.08;;;;;;;0.92;88.99;100518.30;1729898;82;21195;-70
2020/12/14 13:04:11;;;;;;;9.03;8.05;;;;;;;0.93;88.89;100518.71;1731491;82;21091;-70
2020/12/14 13:06:41;;;;;;;9.33;8.23;;;;;;;0.92;88.80;100509.32;1731858;82;21011;-70
2020/12/14 13:09:10;;;;;;;10.05;8.80;;;;;;;0.92;88.92;100512.73;1704249;83;21100;-69
2020/12/14 13:11:40;;;;;;;8.10;7.28;;;;;;;0.93;88.98;100508.02;1709495;83;21558;-70
2020/12/14 13:14:11;;;;;;;13.72;11.80;;;;;;;0.96;89.02;100494.33;1738322;82;21194;-72
2020/12/14 13:16:40;;;;;;;21.42;17.05;;;;;;;0.96;88.96;100500.30;1729554;81;21023;-68
2020/12/14 13:19:09;;;;;;;14.13;11.10;;;;;;;0.95;88.88;100496.04;1730801;82;21010;-70
2020/12/14 13:21:38;;;;;;;12.30;11.00;;;;;;;0.94;88.77;100496.05;1731727;80;21033;-69
2020/12/14 13:24:07;;;;;;;16.75;13.20;;;;;;;0.91;88.63;100492.23;1729764;82;21053;-68
2020/12/14 13:26:35;;;;;;;19.32;15.48;;;;;;;0.89;88.78;100499.94;1719687;83;21213;-69
2020/12/14 13:29:03;;;;;;;22.02;16.20;;;;;;;0.87;88.71;100504.23;1720437;82;21074;-70
2020/12/14 13:31:32;;;;;;;19.95;16.70;;;;;;;0.85;88.70;100508.95;1726418;82;21049;-70
2020/12/14 13:34:01;;;;;;;27.15;19.20;;;;;;;0.83;88.71;100508.97;1730050;82;21031;-70
2020/12/14 13:36:29;;;;;;;25.05;19.40;;;;;;;0.80;88.66;100512.02;1748815;81;21060;-69
2020/12/14 13:38:58;;;;;;;20.27;15.58;;;;;;;0.76;88.72;100511.63;1729042;82;22065;-69
2020/12/14 13:41:28;;;;;;;12.95;11.55;;;;;;;0.76;88.90;100518.03;1722448;83;21612;-70
2020/12/14 13:43:57;;;;;;;10.82;9.73;;;;;;;0.76;89.03;100513.75;1720433;82;21081;-68
2020/12/14 13:46:26;;;;;;;12.15;10.23;;;;;;;0.78;88.98;100518.87;1736973;81;21706;-77
2020/12/14 13:48:55;;;;;;;9.55;8.48;;;;;;;0.79;89.03;100523.13;1712184;83;21002;-72
2020/12/14 13:51:24;;;;;;;10.80;9.33;;;;;;;0.81;88.99;100530.34;1780688;79;21172;-72
2020/12/14 13:53:53;;;;;;;9.68;8.58;;;;;;;0.82;88.96;100531.62;1784221;79;21104;-71
2020/12/14 13:56:21;;;;;;;12.58;8.73;;;;;;;0.84;88.90;100531.17;1783145;79;21005;-70
2020/12/14 13:58:49;;;;;;;10.18;9.03;;;;;;;0.84;88.69;100528.61;1773004;79;21034;-75
2020/12/14 14:01:17;;;;;;;11.05;9.00;;;;;;;0.80;88.66;100525.66;1782820;79;21017;-74
2020/12/14 14:03:46;;;;;;;10.45;9.18;;;;;;;0.77;88.74;100527.42;1795220;79;21338;-66
2020/12/14 14:06:15;;;;;;;19.20;15.05;;;;;;;0.75;88.87;100532.98;1780665;79;21048;-67
2020/12/14 14:08:45;;;;;;;24.25;17.85;;;;;;;0.74;88.95;100535.13;1796914;79;21176;-70
2020/12/14 14:11:13;;;;;;;25.70;18.10;;;;;;;0.72;89.03;100538.14;1780486;79;21005;-70
2020/12/14 14:13:42;;;;;;;26.82;18.00;;;;;;;0.71;89.11;100539.85;1798817;79;21068;-68
2020/12/14 14:16:10;;;;;;;36.70;24.10;;;;;;;0.72;89.29;100538.14;1799296;78;21464;-73
2020/12/14 14:18:40;;;;;;;37.67;24.37;;;;;;;0.72;89.28;100535.14;1806825;78;21140;-68
2020/12/14 14:21:08;;;;;;;49.83;29.63;;;;;;;0.71;89.28;100537.28;1791995;78;20980;-68
2020/12/14 14:23:38;;;;;;;78.05;42.53;;;;;;;0.71;89.35;100527.47;1778105;79;20996;-67
2020/12/14 14:26:06;;;;;;;58.38;30.05;;;;;;;0.72;89.42;100536.86;1785259;78;21333;-70
2020/12/14 14:28:34;;;;;;;57.98;30.62;;;;;;;0.70;89.36;100530.46;1779804;79;21315;-69
2020/12/14 14:31:03;;;;;;;34.80;21.77;;;;;;;0.69;89.46;100532.60;1787680;79;22455;-69
2020/12/14 14:33:31;;;;;;;32.73;19.60;;;;;;;0.71;89.54;100526.19;1787581;79;21020;-71
2020/12/14 14:35:59;;;;;;;43.20;22.35;;;;;;;0.72;89.52;100524.05;1777463;79;21012;-76
2020/12/14 14:38:27;;;;;;;40.38;20.85;;;;;;;0.71;89.47;100520.62;1788018;78;21011;-73
2020/12/14 14:40:56;;;;;;;37.75;20.27;;;;;;;0.70;89.49;100520.21;1783492;79;21454;-74
2020/12/14 14:43:28;;;;;;;33.10;18.92;;;;;;;0.70;89.51;100531.74;1779913;79;21058;-74
2020/12/14 14:45:57;;;;;;;30.10;20.82;;;;;;;0.70;89.51;100522.77;1784993;78;21063;-74
2020/12/14 14:48:26;;;;;;;22.82;16.57;;;;;;;0.69;89.58;100530.47;1777627;79;21027;-76
2020/12/14 14:50:55;;;;;;;15.20;11.95;;;;;;;0.69;89.66;100530.47;1775907;79;21019;-72
2020/12/14 14:53:23;;;;;;;13.88;10.20;;;;;;;0.68;89.63;100523.64;1791160;79;21068;-71
2020/12/14 14:55:54;;;;;;;12.55;10.48;;;;;;;0.65;89.60;100532.20;1781468;79;21695;-71
2020/12/14 14:58:23;;;;;;;12.80;10.85;;;;;;;0.63;89.71;100524.53;1781930;79;21274;-72
2020/12/14 15:00:51;;;;;;;14.45;11.95;;;;;;;0.63;89.80;100532.65;1784966;79;21055;-67
2020/12/14 15:03:20;;;;;;;15.90;12.80;;;;;;;0.65;89.95;100530.49;1776232;79;21293;-72
2020/12/14 15:05:50;;;;;;;16.12;13.08;;;;;;;0.67;90.04;100534.33;1719886;82;22182;-70
2020/12/14 15:08:18;;;;;;;18.42;13.72;;;;;;;0.69;90.09;100531.33;1778292;79;21672;-68
2020/12/14 15:10:47;;;;;;;22.30;15.10;;;;;;;0.69;89.94;100532.60;1770815;81;21698;-68
2020/12/14 15:13:16;;;;;;;19.25;15.00;;;;;;;0.69;89.94;100533.88;1771690;81;21493;-78
2020/12/14 15:15:44;;;;;;;14.93;12.23;;;;;;;0.68;90.00;100524.50;1771699;80;20987;-76
2020/12/14 15:18:13;;;;;;;16.70;13.38;;;;;;;0.71;89.96;100527.47;1769532;80;22081;-70
2020/12/14 15:20:42;;;;;;;15.88;12.10;;;;;;;0.69;89.90;100522.36;1769012;81;21040;-72
2020/12/14 15:23:10;;;;;;;15.53;12.00;;;;;;;0.70;89.92;100516.36;1769103;81;21024;-67
2020/12/14 15:25:40;;;;;;;14.05;10.82;;;;;;;0.71;89.89;100513.38;1769032;80;20925;-67
2020/12/14 15:28:09;;;;;;;14.30;11.05;;;;;;;0.72;89.95;100515.08;1769183;81;21557;-69
2020/12/14 15:30:37;;;;;;;10.80;9.70;;;;;;;0.71;89.94;100512.94;1769120;81;21221;-71
2020/12/14 15:33:05;;;;;;;12.75;10.68;;;;;;;0.71;89.88;100512.94;1729537;83;20966;-68
2020/12/14 15:35:34;;;;;;;12.25;10.93;;;;;;;0.72;89.90;100519.77;1729742;83;20949;-67
2020/12/14 15:38:02;;;;;;;10.78;9.58;;;;;;;0.70;89.86;100526.62;1729509;83;21049;-68
2020/12/14 15:40:30;;;;;;;11.88;10.28;;;;;;;0.70;89.95;100523.20;1716868;83;21654;-67
2020/12/14 15:42:59;;;;;;;11.25;10.08;;;;;;;0.70;90.07;100525.33;1716698;83;22160;-67
2020/12/14 15:45:28;;;;;;;12.45;10.85;;;;;;;0.71;90.06;100522.34;1729633;82;21001;-68
2020/12/14 15:47:56;;;;;;;15.00;12.25;;;;;;;0.72;90.19;100527.89;1729529;83;20926;-68
2020/12/14 15:50:25;;;;;;;21.73;15.20;;;;;;;0.74;90.10;100528.72;1728679;83;21608;-68
2020/12/14 15:52:53;;;;;;;24.10;18.15;;;;;;;0.74;90.00;100529.58;1729673;82;21021;-68
2020/12/14 15:55:21;;;;;;;30.48;20.60;;;;;;;0.73;89.90;100521.47;1729622;83;21321;-69
2020/12/14 15:57:50;;;;;;;22.95;17.60;;;;;;;0.73;89.90;100522.75;1729471;83;21068;-71
2020/12/14 16:00:18;;;;;;;23.18;16.93;;;;;;;0.71;89.86;100520.62;1729686;83;20957;-70
2020/12/14 16:02:47;;;;;;;16.60;13.72;;;;;;;0.70;89.89;100519.36;1729620;83;20986;-68
2020/12/14 16:05:19;;;;;;;15.25;12.85;;;;;;;0.67;89.84;100525.36;1729787;83;20957;-68
2020/12/14 16:07:49;;;;;;;15.05;12.63;;;;;;;0.65;89.86;100518.97;1729847;83;21408;-69
2020/12/14 16:10:17;;;;;;;15.50;12.53;;;;;;;0.63;89.90;100519.41;1729819;83;20954;-68
2020/12/14 16:12:46;;;;;;;20.85;16.77;;;;;;;0.63;89.96;100530.94;1729834;83;21546;-69
2020/12/14 16:15:15;;;;;;;29.25;21.85;;;;;;;0.62;89.87;100541.20;1729791;83;20934;-72
2020/12/14 16:17:43;;;;;;;28.17;21.35;;;;;;;0.61;89.88;100540.78;1729638;81;21021;-69
2020/12/14 16:20:11;;;;;;;21.42;16.32;;;;;;;0.61;89.86;100552.31;1729672;83;21173;-69
2020/12/14 16:22:40;;;;;;;15.50;12.47;;;;;;;0.60;89.96;100557.86;1729723;83;21068;-69
2020/12/14 16:25:09;;;;;;;13.45;11.97;;;;;;;0.61;90.07;100558.28;1729831;83;20937;-68
2020/12/14 16:27:43;;;;;;;16.37;14.10;;;;;;;0.63;90.06;100559.13;1729815;83;20930;-71
2020/12/14 16:30:13;;;;;;;16.93;13.95;;;;;;;0.65;89.98;100562.53;1729772;83;21005;-69
2020/12/14 16:32:41;;;;;;;19.70;13.62;;;;;;;0.68;90.00;100559.52;1729741;83;21359;-69
2020/12/14 16:35:10;;;;;;;21.15;15.15;;;;;;;0.70;89.92;100564.21;1729809;82;21515;-69
2020/12/14 16:37:38;;;;;;;19.25;14.50;;;;;;;0.72;89.84;100571.45;1729720;83;20949;-68
2020/12/14 16:40:06;;;;;;;20.10;15.58;;;;;;;0.71;89.71;100575.73;1729746;83;21045;-69
2020/12/14 16:42:36;;;;;;;25.12;16.40;;;;;;;0.71;89.73;100570.61;1729306;83;21534;-69
2020/12/14 16:45:05;;;;;;;18.27;13.05;;;;;;;0.71;89.64;100574.45;1728559;83;22311;-72
2020/12/14 16:47:35;;;;;;;18.75;14.30;;;;;;;0.71;89.58;100577.45;1728610;83;21076;-67
2020/12/14 16:50:06;;;;;;;28.45;21.02;;;;;;;0.69;89.54;100576.60;1728660;83;21140;-67
2020/12/14 16:52:34;;;;;;;22.48;17.85;;;;;;;0.72;89.61;100576.58;1728571;83;21084;-67
2020/12/14 16:55:03;;;;;;;23.12;18.82;;;;;;;0.73;89.54;100579.14;1729568;83;21059;-68
2020/12/14 16:57:31;;;;;;;27.87;20.15;;;;;;;0.75;89.53;100577.84;1729745;83;21138;-66
2020/12/14 17:00:01;;;;;;;23.85;18.45;;;;;;;0.75;89.40;100577.41;1729812;83;20954;-69
2020/12/14 17:02:30;;;;;;;21.20;15.70;;;;;;;0.76;89.39;100580.83;1729816;83;21294;-69
2020/12/14 17:05:04;;;;;;;22.77;15.23;;;;;;;0.79;89.40;100582.94;1729739;83;20941;-70
2020/12/14 17:07:37;;;;;;;18.90;14.78;;;;;;;0.80;89.41;100582.51;1729759;83;21001;-70
2020/12/14 17:10:04;;;;;;;18.73;15.63;;;;;;;0.81;89.38;100581.19;1728680;82;21745;-70
2020/12/14 17:12:33;;;;;;;20.97;15.90;;;;;;;0.79;89.38;100586.78;1729787;83;21017;-70
2020/12/14 17:15:01;;;;;;;30.37;21.82;;;;;;;0.80;89.49;100582.51;1729723;83;20957;-70
2020/12/14 17:17:30;;;;;;;44.42;29.52;;;;;;;0.79;89.49;100579.09;1731927;82;20945;-70
2020/12/14 17:20:00;;;;;;;35.55;25.50;;;;;;;0.78;89.48;100577.83;1740479;82;20937;-70
2020/12/14 17:22:31;;;;;;;36.80;26.42;;;;;;;0.77;89.57;100577.41;1740538;82;21463;-71
2020/12/14 17:24:58;;;;;;;38.63;26.30;;;;;;;0.75;89.56;100571.01;1740564;82;20973;-70
2020/12/14 17:27:27;;;;;;;37.50;26.50;;;;;;;0.75;89.83;100573.57;1740482;82;21017;-70
2020/12/14 17:29:55;;;;;;;37.63;26.60;;;;;;;0.77;90.08;100573.56;1740484;82;21490;-70
2020/12/14 17:32:23;;;;;;;39.90;27.50;;;;;;;0.81;89.99;100571.36;1740669;82;21569;-71
2020/12/14 17:34:56;;;;;;;38.00;26.30;;;;;;;0.85;89.88;100587.99;1740561;82;21192;-71
2020/12/14 17:37:22;;;;;;;40.75;27.32;;;;;;;0.88;89.78;100585.41;1740307;82;20997;-70
2020/12/14 17:39:50;;;;;;;44.38;30.40;;;;;;;0.88;89.69;100587.97;1740580;82;21118;-71
2020/12/14 17:42:18;;;;;;;46.23;31.35;;;;;;;0.88;89.66;100587.97;1740544;82;20957;-70
2020/12/14 17:44:46;;;;;;;45.28;31.45;;;;;;;0.88;89.58;100591.81;1740654;82;20957;-70
2020/12/14 17:47:15;;;;;;;35.85;26.42;;;;;;;0.88;89.52;100593.53;1740524;82;21613;-71
2020/12/14 17:49:43;;;;;;;29.30;21.68;;;;;;;0.88;89.53;100591.81;1740542;82;21004;-72
2020/12/14 17:52:12;;;;;;;31.55;22.58;;;;;;;0.88;89.56;100590.97;1740586;82;20996;-70
2020/12/14 17:54:40;;;;;;;31.82;21.37;;;;;;;0.87;89.52;100595.67;1740600;82;21601;-70
2020/12/14 17:57:09;;;;;;;26.93;18.98;;;;;;;0.86;89.60;100584.56;1740665;82;21491;-71
2020/12/14 17:59:42;;;;;;;25.68;18.32;;;;;;;0.86;89.62;100587.56;1740607;82;21199;-70
2020/12/14 18:02:09;;;;;;;23.55;18.60;;;;;;;0.85;89.53;100578.17;1740289;82;20981;-70
2020/12/14 18:04:38;;;;;;;22.60;17.42;;;;;;;0.84;89.54;100578.59;1740674;82;20976;-70
2020/12/14 18:07:07;;;;;;;20.40;15.98;;;;;;;0.85;89.58;100585.86;1740528;82;20941;-70
2020/12/14 18:09:35;;;;;;;20.60;15.48;;;;;;;0.85;89.52;100583.30;1740619;82;20949;-70
2020/12/14 18:12:03;;;;;;;19.77;15.43;;;;;;;0.81;89.49;100578.63;1740686;82;22139;-70
2020/12/14 18:14:33;;;;;;;21.97;15.20;;;;;;;0.80;89.55;100577.38;1740517;82;21005;-72
2020/12/14 18:17:01;;;;;;;23.87;16.75;;;;;;;0.77;89.60;100574.41;1740583;82;21051;-71
2020/12/14 18:19:32;;;;;;;21.60;15.75;;;;;;;0.76;89.68;100578.27;1740547;82;20985;-71